sensor_id;sensor_type;location;lat;lon;timestamp;temperature;humidity
53599;DHT22;39485;45.702;11.364;2022-11-25T00:01:28;5.90;99.90
53599;DHT22;39485;45.702;11.364;2022-11-25T00:03:56;5.90;99.90
53599;DHT22;39485;45.702;11.364;2022-11-25T00:06:27;5.90;99.90
53599;DHT22;39485;45.702;11.364;2022-11-25T00:08:59;5.90;99.90
53599;DHT22;39485;45.702;11.364;2022-11-25T00:11:25;5.90;99.90
53599;DHT22;39485;45.702;11.364;2022-11-25T00:13:52;5.90;99.90
53599;DHT22;39485;45.702;11.364;2022-11-25T00:16:20;5.90;99.90
53599;DHT22;39485;45.702;11.364;2022-11-25T00:18:48;5.90;99.90
53599;DHT22;39485;45.702;11.364;2022-11-25T00:21:17;5.90;99.90
53599;DHT22;39485;45.702;11.364;2022-11-25T00:23:43;5.90;99.90
53599;DHT22;39485;45.702;11.364;2022-11-25T00:26:14;5.90;99.90
53599;DHT22;39485;45.702;11.364;2022-11-25T00:28:43;5.90;99.90
53599;DHT22;39485;45.702;11.364;2022-11-25T00:31:10;5.90;99.90
53599;DHT22;39485;45.702;11.364;2022-11-25T00:33:36;5.90;99.90
53599;DHT22;39485;45.702;11.364;2022-11-25T00:36:03;5.90;99.90
53599;DHT22;39485;45.702;11.364;2022-11-25T00:38:29;5.90;99.90
53599;DHT22;39485;45.702;11.364;2022-11-25T00:40:55;5.90;99.90
53599;DHT22;39485;45.702;11.364;2022-11-25T00:43:39;5.90;99.90
53599;DHT22;39485;45.702;11.364;2022-11-25T00:46:23;5.90;99.90
53599;DHT22;39485;45.702;11.364;2022-11-25T00:48:49;5.90;99.90
53599;DHT22;39485;45.702;11.364;2022-11-25T00:51:14;5.90;99.90
53599;DHT22;39485;45.702;11.364;2022-11-25T00:53:40;5.90;99.90
53599;DHT22;39485;45.702;11.364;2022-11-25T00:56:06;5.90;99.90
53599;DHT22;39485;45.702;11.364;2022-11-25T00:58:40;5.90;99.90
53599;DHT22;39485;45.702;11.364;2022-11-25T01:01:07;5.90;99.90
53599;DHT22;39485;45.702;11.364;2022-11-25T01:03:33;5.90;99.90
53599;DHT22;39485;45.702;11.364;2022-11-25T01:06:06;5.90;99.90
53599;DHT22;39485;45.702;11.364;2022-11-25T01:08:32;5.90;99.90
53599;DHT22;39485;45.702;11.364;2022-11-25T01:11:04;5.90;99.90
53599;DHT22;39485;45.702;11.364;2022-11-25T01:13:30;5.90;99.90
53599;DHT22;39485;45.702;11.364;2022-11-25T01:15:56;6.00;99.90
53599;DHT22;39485;45.702;11.364;2022-11-25T01:18:22;6.00;99.90
53599;DHT22;39485;45.702;11.364;2022-11-25T01:20:47;5.90;99.90
53599;DHT22;39485;45.702;11.364;2022-11-25T01:23:13;6.00;99.90
53599;DHT22;39485;45.702;11.364;2022-11-25T01:25:39;6.00;99.90
53599;DHT22;39485;45.702;11.364;2022-11-25T01:28:05;6.00;99.90
53599;DHT22;39485;45.702;11.364;2022-11-25T01:30:31;6.00;99.90
53599;DHT22;39485;45.702;11.364;2022-11-25T01:32:57;6.00;99.90
53599;DHT22;39485;45.702;11.364;2022-11-25T01:35:23;6.00;99.90
53599;DHT22;39485;45.702;11.364;2022-11-25T01:37:49;6.00;99.90
53599;DHT22;39485;45.702;11.364;2022-11-25T01:40:14;6.00;99.90
53599;DHT22;39485;45.702;11.364;2022-11-25T01:42:45;6.00;99.90
53599;DHT22;39485;45.702;11.364;2022-11-25T01:47:50;6.10;99.90
53599;DHT22;39485;45.702;11.364;2022-11-25T01:50:20;6.10;99.90
53599;DHT22;39485;45.702;11.364;2022-11-25T01:52:49;6.10;99.90
53599;DHT22;39485;45.702;11.364;2022-11-25T01:55:20;6.10;99.90
53599;DHT22;39485;45.702;11.364;2022-11-25T02:00:20;6.10;99.90
53599;DHT22;39485;45.702;11.364;2022-11-25T02:02:49;6.10;99.90
53599;DHT22;39485;45.702;11.364;2022-11-25T02:05:20;6.10;99.90
53599;DHT22;39485;45.702;11.364;2022-11-25T02:07:48;6.10;99.90
53599;DHT22;39485;45.702;11.364;2022-11-25T02:10:17;6.10;99.90
53599;DHT22;39485;45.702;11.364;2022-11-25T02:12:44;6.20;99.90
53599;DHT22;39485;45.702;11.364;2022-11-25T02:15:12;6.20;99.90
53599;DHT22;39485;45.702;11.364;2022-11-25T02:17:38;6.20;99.90
53599;DHT22;39485;45.702;11.364;2022-11-25T02:20:08;6.20;99.90
53599;DHT22;39485;45.702;11.364;2022-11-25T02:25:13;6.20;99.90
53599;DHT22;39485;45.702;11.364;2022-11-25T02:27:40;6.20;99.90
53599;DHT22;39485;45.702;11.364;2022-11-25T02:30:07;6.20;99.90
53599;DHT22;39485;45.702;11.364;2022-11-25T02:32:33;6.20;99.90
53599;DHT22;39485;45.702;11.364;2022-11-25T02:35:00;6.20;99.90
53599;DHT22;39485;45.702;11.364;2022-11-25T02:37:27;6.30;99.90
53599;DHT22;39485;45.702;11.364;2022-11-25T02:39:53;6.30;99.90
53599;DHT22;39485;45.702;11.364;2022-11-25T02:42:21;6.20;99.90
53599;DHT22;39485;45.702;11.364;2022-11-25T02:44:48;6.30;99.90
53599;DHT22;39485;45.702;11.364;2022-11-25T02:47:14;6.30;99.90
53599;DHT22;39485;45.702;11.364;2022-11-25T02:49:40;6.30;99.90
53599;DHT22;39485;45.702;11.364;2022-11-25T02:52:05;6.30;99.90
53599;DHT22;39485;45.702;11.364;2022-11-25T02:54:31;6.20;99.90
53599;DHT22;39485;45.702;11.364;2022-11-25T02:56:57;6.20;99.90
53599;DHT22;39485;45.702;11.364;2022-11-25T02:59:22;6.20;99.90
53599;DHT22;39485;45.702;11.364;2022-11-25T03:01:48;6.20;99.90
53599;DHT22;39485;45.702;11.364;2022-11-25T03:04:14;6.20;99.90
53599;DHT22;39485;45.702;11.364;2022-11-25T03:06:39;6.20;99.90
53599;DHT22;39485;45.702;11.364;2022-11-25T03:09:05;6.20;99.90
53599;DHT22;39485;45.702;11.364;2022-11-25T03:11:31;6.20;99.90
53599;DHT22;39485;45.702;11.364;2022-11-25T03:14:15;6.20;99.90
53599;DHT22;39485;45.702;11.364;2022-11-25T03:16:41;6.20;99.90
53599;DHT22;39485;45.702;11.364;2022-11-25T03:19:06;6.20;99.90
53599;DHT22;39485;45.702;11.364;2022-11-25T03:21:32;6.20;99.90
53599;DHT22;39485;45.702;11.364;2022-11-25T03:23:58;6.20;99.90
53599;DHT22;39485;45.702;11.364;2022-11-25T03:26:24;6.20;99.90
53599;DHT22;39485;45.702;11.364;2022-11-25T03:28:50;6.30;99.90
53599;DHT22;39485;45.702;11.364;2022-11-25T03:31:16;6.30;99.90
53599;DHT22;39485;45.702;11.364;2022-11-25T03:33:41;6.30;99.90
53599;DHT22;39485;45.702;11.364;2022-11-25T03:36:07;6.40;99.90
53599;DHT22;39485;45.702;11.364;2022-11-25T03:38:33;6.40;99.90
53599;DHT22;39485;45.702;11.364;2022-11-25T03:40:58;6.40;99.90
53599;DHT22;39485;45.702;11.364;2022-11-25T03:43:24;6.40;99.90
53599;DHT22;39485;45.702;11.364;2022-11-25T03:45:50;6.40;99.90
53599;DHT22;39485;45.702;11.364;2022-11-25T03:48:15;6.40;99.90
53599;DHT22;39485;45.702;11.364;2022-11-25T03:50:41;6.40;99.90
53599;DHT22;39485;45.702;11.364;2022-11-25T03:53:07;6.40;99.90
53599;DHT22;39485;45.702;11.364;2022-11-25T03:55:34;6.50;99.90
53599;DHT22;39485;45.702;11.364;2022-11-25T03:58:00;6.40;99.90
53599;DHT22;39485;45.702;11.364;2022-11-25T04:00:25;6.40;99.90
53599;DHT22;39485;45.702;11.364;2022-11-25T04:02:51;6.40;99.90
53599;DHT22;39485;45.702;11.364;2022-11-25T04:05:17;6.40;99.90
53599;DHT22;39485;45.702;11.364;2022-11-25T04:07:42;6.50;99.90
53599;DHT22;39485;45.702;11.364;2022-11-25T04:10:08;6.50;99.90
53599;DHT22;39485;45.702;11.364;2022-11-25T04:12:34;6.50;99.90
53599;DHT22;39485;45.702;11.364;2022-11-25T04:15:15;6.50;99.90
53599;DHT22;39485;45.702;11.364;2022-11-25T04:17:42;6.50;99.90
53599;DHT22;39485;45.702;11.364;2022-11-25T04:20:08;6.50;99.90
53599;DHT22;39485;45.702;11.364;2022-11-25T04:22:34;6.50;99.90
53599;DHT22;39485;45.702;11.364;2022-11-25T04:25:00;6.50;99.90
53599;DHT22;39485;45.702;11.364;2022-11-25T04:27:25;6.50;99.90
53599;DHT22;39485;45.702;11.364;2022-11-25T04:29:51;6.50;99.90
53599;DHT22;39485;45.702;11.364;2022-11-25T04:32:17;6.50;99.90
53599;DHT22;39485;45.702;11.364;2022-11-25T04:34:42;6.50;99.90
53599;DHT22;39485;45.702;11.364;2022-11-25T04:37:08;6.50;99.90
53599;DHT22;39485;45.702;11.364;2022-11-25T04:39:34;6.50;99.90
53599;DHT22;39485;45.702;11.364;2022-11-25T04:41:59;6.50;99.90
53599;DHT22;39485;45.702;11.364;2022-11-25T04:44:44;6.50;99.90
53599;DHT22;39485;45.702;11.364;2022-11-25T04:47:09;6.50;99.90
53599;DHT22;39485;45.702;11.364;2022-11-25T04:49:35;6.50;99.90
53599;DHT22;39485;45.702;11.364;2022-11-25T04:52:01;6.40;99.90
53599;DHT22;39485;45.702;11.364;2022-11-25T04:54:26;6.40;99.90
53599;DHT22;39485;45.702;11.364;2022-11-25T04:56:52;6.40;99.90
53599;DHT22;39485;45.702;11.364;2022-11-25T04:59:18;6.40;99.90
53599;DHT22;39485;45.702;11.364;2022-11-25T05:02:02;6.40;99.90
53599;DHT22;39485;45.702;11.364;2022-11-25T05:04:28;6.40;99.90
53599;DHT22;39485;45.702;11.364;2022-11-25T05:06:54;6.30;99.90
53599;DHT22;39485;45.702;11.364;2022-11-25T05:09:19;6.30;99.90
53599;DHT22;39485;45.702;11.364;2022-11-25T05:11:45;6.30;99.90
53599;DHT22;39485;45.702;11.364;2022-11-25T05:14:11;6.30;99.90
53599;DHT22;39485;45.702;11.364;2022-11-25T05:16:36;6.30;99.90
53599;DHT22;39485;45.702;11.364;2022-11-25T05:19:02;6.30;99.90
53599;DHT22;39485;45.702;11.364;2022-11-25T05:21:27;6.30;99.90
53599;DHT22;39485;45.702;11.364;2022-11-25T05:23:53;6.30;99.90
53599;DHT22;39485;45.702;11.364;2022-11-25T05:26:19;6.30;99.90
53599;DHT22;39485;45.702;11.364;2022-11-25T05:28:45;6.30;99.90
53599;DHT22;39485;45.702;11.364;2022-11-25T05:31:11;6.30;99.90
53599;DHT22;39485;45.702;11.364;2022-11-25T05:33:37;6.30;99.90
53599;DHT22;39485;45.702;11.364;2022-11-25T05:36:03;6.30;99.90
53599;DHT22;39485;45.702;11.364;2022-11-25T05:38:29;6.30;99.90
53599;DHT22;39485;45.702;11.364;2022-11-25T05:41:02;6.30;99.90
53599;DHT22;39485;45.702;11.364;2022-11-25T05:43:28;6.30;99.90
53599;DHT22;39485;45.702;11.364;2022-11-25T05:45:54;6.30;99.90
53599;DHT22;39485;45.702;11.364;2022-11-25T05:48:20;6.30;99.90
53599;DHT22;39485;45.702;11.364;2022-11-25T05:50:45;6.40;99.90
53599;DHT22;39485;45.702;11.364;2022-11-25T05:53:11;6.30;99.90
53599;DHT22;39485;45.702;11.364;2022-11-25T05:55:38;6.40;99.90
53599;DHT22;39485;45.702;11.364;2022-11-25T05:58:04;6.40;99.90
53599;DHT22;39485;45.702;11.364;2022-11-25T06:00:31;6.40;99.90
53599;DHT22;39485;45.702;11.364;2022-11-25T06:02:56;6.40;99.90
53599;DHT22;39485;45.702;11.364;2022-11-25T06:05:22;6.40;99.90
53599;DHT22;39485;45.702;11.364;2022-11-25T06:07:48;6.40;99.90
53599;DHT22;39485;45.702;11.364;2022-11-25T06:10:17;6.40;99.90
53599;DHT22;39485;45.702;11.364;2022-11-25T06:12:43;6.40;99.90
53599;DHT22;39485;45.702;11.364;2022-11-25T06:15:10;6.40;99.90
53599;DHT22;39485;45.702;11.364;2022-11-25T06:17:36;6.40;99.90
53599;DHT22;39485;45.702;11.364;2022-11-25T06:20:03;6.40;99.90
53599;DHT22;39485;45.702;11.364;2022-11-25T06:22:28;6.40;99.90
53599;DHT22;39485;45.702;11.364;2022-11-25T06:24:54;6.40;99.90
53599;DHT22;39485;45.702;11.364;2022-11-25T06:27:20;6.50;99.90
53599;DHT22;39485;45.702;11.364;2022-11-25T06:29:45;6.50;99.90
53599;DHT22;39485;45.702;11.364;2022-11-25T06:32:11;6.50;99.90
53599;DHT22;39485;45.702;11.364;2022-11-25T06:34:37;6.50;99.90
53599;DHT22;39485;45.702;11.364;2022-11-25T06:37:07;6.50;99.90
53599;DHT22;39485;45.702;11.364;2022-11-25T06:39:33;6.50;99.90
53599;DHT22;39485;45.702;11.364;2022-11-25T06:41:58;6.50;99.90
53599;DHT22;39485;45.702;11.364;2022-11-25T06:44:24;6.50;99.90
53599;DHT22;39485;45.702;11.364;2022-11-25T06:46:50;6.50;99.90
53599;DHT22;39485;45.702;11.364;2022-11-25T06:49:15;6.50;99.90
53599;DHT22;39485;45.702;11.364;2022-11-25T06:51:41;6.60;99.90
53599;DHT22;39485;45.702;11.364;2022-11-25T06:54:07;6.50;99.90
53599;DHT22;39485;45.702;11.364;2022-11-25T06:56:33;6.60;99.90
53599;DHT22;39485;45.702;11.364;2022-11-25T06:58:58;6.60;99.90
53599;DHT22;39485;45.702;11.364;2022-11-25T07:01:26;6.60;99.90
53599;DHT22;39485;45.702;11.364;2022-11-25T07:03:59;6.50;99.90
53599;DHT22;39485;45.702;11.364;2022-11-25T07:06:25;6.60;99.90
53599;DHT22;39485;45.702;11.364;2022-11-25T07:08:51;6.60;99.90
53599;DHT22;39485;45.702;11.364;2022-11-25T07:11:21;6.50;99.90
53599;DHT22;39485;45.702;11.364;2022-11-25T07:13:47;6.50;99.90
53599;DHT22;39485;45.702;11.364;2022-11-25T07:16:15;6.50;99.90
53599;DHT22;39485;45.702;11.364;2022-11-25T07:18:41;6.50;99.90
53599;DHT22;39485;45.702;11.364;2022-11-25T07:21:12;6.60;99.90
53599;DHT22;39485;45.702;11.364;2022-11-25T07:23:39;6.60;99.90
53599;DHT22;39485;45.702;11.364;2022-11-25T07:26:17;6.60;99.90
53599;DHT22;39485;45.702;11.364;2022-11-25T07:28:43;6.60;99.90
53599;DHT22;39485;45.702;11.364;2022-11-25T07:31:18;6.60;99.90
53599;DHT22;39485;45.702;11.364;2022-11-25T07:33:44;6.70;99.90
53599;DHT22;39485;45.702;11.364;2022-11-25T07:36:11;6.70;99.90
53599;DHT22;39485;45.702;11.364;2022-11-25T07:38:37;6.70;99.90
53599;DHT22;39485;45.702;11.364;2022-11-25T07:41:05;6.70;99.90
53599;DHT22;39485;45.702;11.364;2022-11-25T07:43:31;6.70;99.90
53599;DHT22;39485;45.702;11.364;2022-11-25T07:46:14;6.70;99.90
53599;DHT22;39485;45.702;11.364;2022-11-25T07:48:41;6.80;99.90
53599;DHT22;39485;45.702;11.364;2022-11-25T07:51:18;6.80;99.90
53599;DHT22;39485;45.702;11.364;2022-11-25T07:53:45;6.80;99.90
53599;DHT22;39485;45.702;11.364;2022-11-25T07:56:11;6.90;99.90
53599;DHT22;39485;45.702;11.364;2022-11-25T07:58:37;6.90;99.90
53599;DHT22;39485;45.702;11.364;2022-11-25T08:01:04;6.90;99.90
53599;DHT22;39485;45.702;11.364;2022-11-25T08:03:34;7.00;99.90
53599;DHT22;39485;45.702;11.364;2022-11-25T08:06:04;7.10;99.90
53599;DHT22;39485;45.702;11.364;2022-11-25T08:08:31;7.10;99.90
53599;DHT22;39485;45.702;11.364;2022-11-25T08:10:57;7.20;99.90
53599;DHT22;39485;45.702;11.364;2022-11-25T08:13:23;7.20;99.90
53599;DHT22;39485;45.702;11.364;2022-11-25T08:15:48;7.30;99.90
53599;DHT22;39485;45.702;11.364;2022-11-25T08:18:14;7.40;99.90
53599;DHT22;39485;45.702;11.364;2022-11-25T08:20:40;7.40;99.90
53599;DHT22;39485;45.702;11.364;2022-11-25T08:23:06;7.50;99.90
53599;DHT22;39485;45.702;11.364;2022-11-25T08:25:31;7.60;99.90
53599;DHT22;39485;45.702;11.364;2022-11-25T08:28:00;7.70;99.90
53599;DHT22;39485;45.702;11.364;2022-11-25T08:30:26;7.70;99.90
53599;DHT22;39485;45.702;11.364;2022-11-25T08:32:52;7.80;99.90
53599;DHT22;39485;45.702;11.364;2022-11-25T08:35:18;7.90;99.90
53599;DHT22;39485;45.702;11.364;2022-11-25T08:37:44;8.00;99.90
53599;DHT22;39485;45.702;11.364;2022-11-25T08:40:11;8.10;99.90
53599;DHT22;39485;45.702;11.364;2022-11-25T08:42:37;8.10;99.90
53599;DHT22;39485;45.702;11.364;2022-11-25T08:45:04;8.20;99.90
53599;DHT22;39485;45.702;11.364;2022-11-25T08:47:30;8.30;99.90
53599;DHT22;39485;45.702;11.364;2022-11-25T08:49:56;8.40;99.90
53599;DHT22;39485;45.702;11.364;2022-11-25T08:52:22;8.50;99.90
53599;DHT22;39485;45.702;11.364;2022-11-25T08:54:48;8.50;99.90
53599;DHT22;39485;45.702;11.364;2022-11-25T08:57:14;8.60;99.90
53599;DHT22;39485;45.702;11.364;2022-11-25T08:59:40;8.60;99.90
53599;DHT22;39485;45.702;11.364;2022-11-25T09:02:15;8.70;99.90
53599;DHT22;39485;45.702;11.364;2022-11-25T09:04:42;8.80;99.90
53599;DHT22;39485;45.702;11.364;2022-11-25T09:07:10;8.80;99.90
53599;DHT22;39485;45.702;11.364;2022-11-25T09:09:35;8.90;99.90
53599;DHT22;39485;45.702;11.364;2022-11-25T09:12:01;9.00;99.90
53599;DHT22;39485;45.702;11.364;2022-11-25T09:14:27;9.00;99.90
53599;DHT22;39485;45.702;11.364;2022-11-25T09:16:53;9.10;99.90
53599;DHT22;39485;45.702;11.364;2022-11-25T09:19:19;9.20;99.90
53599;DHT22;39485;45.702;11.364;2022-11-25T09:21:44;9.20;99.90
53599;DHT22;39485;45.702;11.364;2022-11-25T09:24:10;9.30;99.90
53599;DHT22;39485;45.702;11.364;2022-11-25T09:26:36;9.40;99.90
53599;DHT22;39485;45.702;11.364;2022-11-25T09:29:05;9.40;99.90
53599;DHT22;39485;45.702;11.364;2022-11-25T09:31:31;9.50;99.90
53599;DHT22;39485;45.702;11.364;2022-11-25T09:33:57;9.50;99.90
53599;DHT22;39485;45.702;11.364;2022-11-25T09:36:23;9.60;99.90
53599;DHT22;39485;45.702;11.364;2022-11-25T09:38:49;9.60;99.90
53599;DHT22;39485;45.702;11.364;2022-11-25T09:41:23;9.70;99.90
53599;DHT22;39485;45.702;11.364;2022-11-25T09:50:09;9.80;99.90
53599;DHT22;39485;45.702;11.364;2022-11-25T09:55:20;10.00;99.90
53599;DHT22;39485;45.702;11.364;2022-11-25T10:00:18;10.00;99.90
53599;DHT22;39485;45.702;11.364;2022-11-25T10:05:29;10.10;99.90
53599;DHT22;39485;45.702;11.364;2022-11-25T10:08:02;10.20;99.90
53599;DHT22;39485;45.702;11.364;2022-11-25T10:10:45;10.20;99.90
53599;DHT22;39485;45.702;11.364;2022-11-25T10:13:23;10.20;99.90
53599;DHT22;39485;45.702;11.364;2022-11-25T10:15:53;10.20;99.90
53599;DHT22;39485;45.702;11.364;2022-11-25T10:18:37;10.30;99.90
53599;DHT22;39485;45.702;11.364;2022-11-25T10:21:04;10.30;99.90
53599;DHT22;39485;45.702;11.364;2022-11-25T10:23:33;10.30;99.90
53599;DHT22;39485;45.702;11.364;2022-11-25T10:26:12;10.30;99.90
53599;DHT22;39485;45.702;11.364;2022-11-25T10:28:41;10.40;99.90
53599;DHT22;39485;45.702;11.364;2022-11-25T10:31:24;10.40;99.90
53599;DHT22;39485;45.702;11.364;2022-11-25T10:33:55;10.50;99.90
53599;DHT22;39485;45.702;11.364;2022-11-25T10:36:26;10.60;99.90
53599;DHT22;39485;45.702;11.364;2022-11-25T10:38:55;10.60;99.90
53599;DHT22;39485;45.702;11.364;2022-11-25T10:41:25;10.70;99.90
53599;DHT22;39485;45.702;11.364;2022-11-25T10:43:51;10.70;99.90
53599;DHT22;39485;45.702;11.364;2022-11-25T10:49:14;10.80;99.90
53599;DHT22;39485;45.702;11.364;2022-11-25T10:51:47;10.90;99.90
53599;DHT22;39485;45.702;11.364;2022-11-25T10:59:21;10.90;99.90
53599;DHT22;39485;45.702;11.364;2022-11-25T11:01:47;11.00;99.90
53599;DHT22;39485;45.702;11.364;2022-11-25T11:04:14;11.00;99.90
53599;DHT22;39485;45.702;11.364;2022-11-25T11:06:44;11.00;99.90
53599;DHT22;39485;45.702;11.364;2022-11-25T11:09:32;11.10;99.90
53599;DHT22;39485;45.702;11.364;2022-11-25T11:12:12;11.10;99.90
53599;DHT22;39485;45.702;11.364;2022-11-25T11:14:39;11.10;99.90
53599;DHT22;39485;45.702;11.364;2022-11-25T11:17:05;11.20;99.90
53599;DHT22;39485;45.702;11.364;2022-11-25T11:19:30;11.20;99.90
53599;DHT22;39485;45.702;11.364;2022-11-25T11:22:13;11.20;99.90
53599;DHT22;39485;45.702;11.364;2022-11-25T11:24:39;11.30;99.90
53599;DHT22;39485;45.702;11.364;2022-11-25T11:27:23;11.30;99.90
53599;DHT22;39485;45.702;11.364;2022-11-25T11:30:23;11.40;99.90
53599;DHT22;39485;45.702;11.364;2022-11-25T11:38:33;11.40;99.90
53599;DHT22;39485;45.702;11.364;2022-11-25T11:41:33;11.50;99.90
53599;DHT22;39485;45.702;11.364;2022-11-25T11:47:02;11.50;99.90
53599;DHT22;39485;45.702;11.364;2022-11-25T11:49:44;11.50;99.90
53599;DHT22;39485;45.702;11.364;2022-11-25T11:52:38;11.60;99.90
53599;DHT22;39485;45.702;11.364;2022-11-25T12:00:39;11.70;99.90
53599;DHT22;39485;45.702;11.364;2022-11-25T12:03:19;11.70;99.90
53599;DHT22;39485;45.702;11.364;2022-11-25T12:05:46;11.80;99.90
53599;DHT22;39485;45.702;11.364;2022-11-25T12:08:33;11.80;99.90
53599;DHT22;39485;45.702;11.364;2022-11-25T12:11:15;11.90;99.90
53599;DHT22;39485;45.702;11.364;2022-11-25T12:14:05;11.90;99.90
53599;DHT22;39485;45.702;11.364;2022-11-25T12:16:42;11.90;99.90
53599;DHT22;39485;45.702;11.364;2022-11-25T12:19:43;11.90;99.90
53599;DHT22;39485;45.702;11.364;2022-11-25T12:24:52;12.00;99.90
53599;DHT22;39485;45.702;11.364;2022-11-25T12:27:43;12.00;99.90
53599;DHT22;39485;45.702;11.364;2022-11-25T12:30:14;12.00;99.90
53599;DHT22;39485;45.702;11.364;2022-11-25T12:35:22;12.00;99.90
53599;DHT22;39485;45.702;11.364;2022-11-25T12:38:17;12.00;99.90
53599;DHT22;39485;45.702;11.364;2022-11-25T12:43:48;12.10;99.90
53599;DHT22;39485;45.702;11.364;2022-11-25T12:48:49;12.10;99.90
53599;DHT22;39485;45.702;11.364;2022-11-25T13:13:03;12.40;99.90
53599;DHT22;39485;45.702;11.364;2022-11-25T13:15:44;12.40;99.90
53599;DHT22;39485;45.702;11.364;2022-11-25T13:18:16;12.40;99.90
53599;DHT22;39485;45.702;11.364;2022-11-25T13:20:53;12.40;99.90
53599;DHT22;39485;45.702;11.364;2022-11-25T13:23:22;12.40;99.90
53599;DHT22;39485;45.702;11.364;2022-11-25T13:25:49;12.40;99.90
53599;DHT22;39485;45.702;11.364;2022-11-25T13:30:51;12.40;99.90
53599;DHT22;39485;45.702;11.364;2022-11-25T13:41:03;12.40;99.90
53599;DHT22;39485;45.702;11.364;2022-11-25T13:44:03;12.40;99.90
53599;DHT22;39485;45.702;11.364;2022-11-25T13:46:34;12.30;99.90
53599;DHT22;39485;45.702;11.364;2022-11-25T13:49:01;12.30;99.90
53599;DHT22;39485;45.702;11.364;2022-11-25T13:51:29;12.30;99.90
53599;DHT22;39485;45.702;11.364;2022-11-25T13:53:58;12.30;99.90
53599;DHT22;39485;45.702;11.364;2022-11-25T13:56:35;12.30;99.90
53599;DHT22;39485;45.702;11.364;2022-11-25T14:07:29;12.10;99.90
53599;DHT22;39485;45.702;11.364;2022-11-25T14:18:09;12.00;99.90
53599;DHT22;39485;45.702;11.364;2022-11-25T14:21:37;11.90;99.90
53599;DHT22;39485;45.702;11.364;2022-11-25T14:26:41;11.80;99.90
53599;DHT22;39485;45.702;11.364;2022-11-25T14:29:22;11.70;99.90
53599;DHT22;39485;45.702;11.364;2022-11-25T14:31:57;11.70;99.90
53599;DHT22;39485;45.702;11.364;2022-11-25T14:34:33;11.60;99.90
53599;DHT22;39485;45.702;11.364;2022-11-25T14:37:13;11.60;99.90
53599;DHT22;39485;45.702;11.364;2022-11-25T14:42:21;11.60;99.90
53599;DHT22;39485;45.702;11.364;2022-11-25T14:44:49;11.50;99.90
53599;DHT22;39485;45.702;11.364;2022-11-25T14:47:41;11.40;99.90
53599;DHT22;39485;45.702;11.364;2022-11-25T14:50:12;11.30;99.90
53599;DHT22;39485;45.702;11.364;2022-11-25T14:52:39;11.20;99.90
53599;DHT22;39485;45.702;11.364;2022-11-25T14:55:09;11.10;99.90
53599;DHT22;39485;45.702;11.364;2022-11-25T14:57:37;11.00;99.90
53599;DHT22;39485;45.702;11.364;2022-11-25T15:00:06;10.90;99.90
53599;DHT22;39485;45.702;11.364;2022-11-25T15:02:34;10.80;99.90
53599;DHT22;39485;45.702;11.364;2022-11-25T15:05:24;10.70;99.90
53599;DHT22;39485;45.702;11.364;2022-11-25T15:08:00;10.60;99.90
53599;DHT22;39485;45.702;11.364;2022-11-25T15:12:54;10.50;99.90
53599;DHT22;39485;45.702;11.364;2022-11-25T15:15:20;10.40;99.90
53599;DHT22;39485;45.702;11.364;2022-11-25T15:17:46;10.30;99.90
53599;DHT22;39485;45.702;11.364;2022-11-25T15:20:14;10.20;99.90
53599;DHT22;39485;45.702;11.364;2022-11-25T15:22:45;10.10;99.90
53599;DHT22;39485;45.702;11.364;2022-11-25T15:25:13;10.10;99.90
53599;DHT22;39485;45.702;11.364;2022-11-25T15:27:45;10.00;99.90
53599;DHT22;39485;45.702;11.364;2022-11-25T15:30:20;9.90;99.90
53599;DHT22;39485;45.702;11.364;2022-11-25T15:32:47;9.80;99.90
53599;DHT22;39485;45.702;11.364;2022-11-25T15:35:18;9.70;99.90
53599;DHT22;39485;45.702;11.364;2022-11-25T15:37:46;9.70;99.90
53599;DHT22;39485;45.702;11.364;2022-11-25T15:40:35;9.60;99.90
53599;DHT22;39485;45.702;11.364;2022-11-25T15:43:04;9.60;99.90
53599;DHT22;39485;45.702;11.364;2022-11-25T15:45:42;9.50;99.90
53599;DHT22;39485;45.702;11.364;2022-11-25T15:48:15;9.50;99.90
53599;DHT22;39485;45.702;11.364;2022-11-25T15:50:43;9.40;99.90
53599;DHT22;39485;45.702;11.364;2022-11-25T15:53:23;9.40;99.90
53599;DHT22;39485;45.702;11.364;2022-11-25T15:55:50;9.40;99.90
53599;DHT22;39485;45.702;11.364;2022-11-25T15:58:20;9.30;99.90
53599;DHT22;39485;45.702;11.364;2022-11-25T16:03:40;9.20;99.90
53599;DHT22;39485;45.702;11.364;2022-11-25T16:06:26;9.20;99.90
53599;DHT22;39485;45.702;11.364;2022-11-25T16:08:53;9.10;99.90
53599;DHT22;39485;45.702;11.364;2022-11-25T16:11:19;9.00;99.90
53599;DHT22;39485;45.702;11.364;2022-11-25T16:13:47;9.00;99.90
53599;DHT22;39485;45.702;11.364;2022-11-25T16:16:16;8.90;99.90
53599;DHT22;39485;45.702;11.364;2022-11-25T16:26:48;8.80;99.90
53599;DHT22;39485;45.702;11.364;2022-11-25T16:29:38;8.80;99.90
53599;DHT22;39485;45.702;11.364;2022-11-25T16:32:20;8.70;99.90
53599;DHT22;39485;45.702;11.364;2022-11-25T16:34:46;8.70;99.90
53599;DHT22;39485;45.702;11.364;2022-11-25T16:37:12;8.60;99.90
53599;DHT22;39485;45.702;11.364;2022-11-25T16:39:38;8.60;99.90
53599;DHT22;39485;45.702;11.364;2022-11-25T16:42:04;8.60;99.90
53599;DHT22;39485;45.702;11.364;2022-11-25T16:44:32;8.60;99.90
53599;DHT22;39485;45.702;11.364;2022-11-25T16:46:58;8.50;99.90
53599;DHT22;39485;45.702;11.364;2022-11-25T16:49:24;8.50;99.90
53599;DHT22;39485;45.702;11.364;2022-11-25T16:51:51;8.40;99.90
53599;DHT22;39485;45.702;11.364;2022-11-25T16:54:21;8.40;99.90
53599;DHT22;39485;45.702;11.364;2022-11-25T16:56:52;8.40;99.90
53599;DHT22;39485;45.702;11.364;2022-11-25T16:59:27;8.30;99.90
53599;DHT22;39485;45.702;11.364;2022-11-25T17:01:53;8.30;99.90
53599;DHT22;39485;45.702;11.364;2022-11-25T17:04:19;8.30;99.90
53599;DHT22;39485;45.702;11.364;2022-11-25T17:06:45;8.20;99.90
53599;DHT22;39485;45.702;11.364;2022-11-25T17:09:11;8.20;99.90
53599;DHT22;39485;45.702;11.364;2022-11-25T17:14:14;8.20;99.90
53599;DHT22;39485;45.702;11.364;2022-11-25T17:16:42;8.20;99.90
53599;DHT22;39485;45.702;11.364;2022-11-25T17:19:13;8.20;99.90
53599;DHT22;39485;45.702;11.364;2022-11-25T17:21:39;8.20;99.90
53599;DHT22;39485;45.702;11.364;2022-11-25T17:24:19;8.20;99.90
53599;DHT22;39485;45.702;11.364;2022-11-25T17:26:49;8.10;99.90
53599;DHT22;39485;45.702;11.364;2022-11-25T17:29:22;8.10;99.90
53599;DHT22;39485;45.702;11.364;2022-11-25T17:31:50;8.10;99.90
53599;DHT22;39485;45.702;11.364;2022-11-25T17:34:16;8.10;99.90
53599;DHT22;39485;45.702;11.364;2022-11-25T17:36:43;8.10;99.90
53599;DHT22;39485;45.702;11.364;2022-11-25T17:39:13;8.00;99.90
53599;DHT22;39485;45.702;11.364;2022-11-25T17:41:49;8.00;99.90
53599;DHT22;39485;45.702;11.364;2022-11-25T17:46:45;7.90;99.90
53599;DHT22;39485;45.702;11.364;2022-11-25T17:49:14;7.90;99.90